sensor_id;sensor_type;location;lat;lon;timestamp;pressure;altitude;pressure_sealevel;temperature;humidity
14067;BME280;7108;42.684;23.350;2023-08-06T00:01:48;94252.16;;;21.85;100.00
14067;BME280;7108;42.684;23.350;2023-08-06T00:04:13;94217.38;;;21.65;100.00
14067;BME280;7108;42.684;23.350;2023-08-06T00:06:39;94222.22;;;21.61;100.00
14067;BME280;7108;42.684;23.350;2023-08-06T00:09:05;94237.63;;;21.67;100.00
14067;BME280;7108;42.684;23.350;2023-08-06T00:11:30;94247.88;;;21.76;100.00
14067;BME280;7108;42.684;23.350;2023-08-06T00:13:55;94262.78;;;21.75;100.00
14067;BME280;7108;42.684;23.350;2023-08-06T00:16:21;94259.91;;;21.78;100.00
14067;BME280;7108;42.684;23.350;2023-08-06T00:18:46;94252.50;;;21.87;100.00
14067;BME280;7108;42.684;23.350;2023-08-06T00:21:12;94211.78;;;21.86;100.00
14067;BME280;7108;42.684;23.350;2023-08-06T00:23:38;94235.72;;;21.85;100.00
14067;BME280;7108;42.684;23.350;2023-08-06T00:26:04;94232.63;;;21.75;100.00
14067;BME280;7108;42.684;23.350;2023-08-06T00:28:29;94248.84;;;21.90;100.00
14067;BME280;7108;42.684;23.350;2023-08-06T00:30:55;94235.72;;;21.85;100.00
14067;BME280;7108;42.684;23.350;2023-08-06T00:33:21;94212.25;;;21.84;100.00
14067;BME280;7108;42.684;23.350;2023-08-06T00:35:47;94211.16;;;21.82;100.00
14067;BME280;7108;42.684;23.350;2023-08-06T00:38:12;94211.81;;;21.95;100.00
14067;BME280;7108;42.684;23.350;2023-08-06T00:40:38;94205.75;;;22.00;100.00
14067;BME280;7108;42.684;23.350;2023-08-06T00:43:03;94199.19;;;21.97;100.00
14067;BME280;7108;42.684;23.350;2023-08-06T00:45:29;94210.16;;;21.97;100.00
14067;BME280;7108;42.684;23.350;2023-08-06T00:47:56;94196.56;;;21.94;100.00
14067;BME280;7108;42.684;23.350;2023-08-06T00:50:21;94206.94;;;21.99;100.00
14067;BME280;7108;42.684;23.350;2023-08-06T00:52:48;94191.09;;;21.94;100.00
14067;BME280;7108;42.684;23.350;2023-08-06T00:55:15;94203.59;;;21.95;100.00
14067;BME280;7108;42.684;23.350;2023-08-06T00:57:41;94198.53;;;21.93;100.00
14067;BME280;7108;42.684;23.350;2023-08-06T01:00:07;94190.03;;;21.91;100.00
14067;BME280;7108;42.684;23.350;2023-08-06T01:02:32;94184.06;;;21.93;100.00
14067;BME280;7108;42.684;23.350;2023-08-06T01:04:58;94170.97;;;21.88;100.00
14067;BME280;7108;42.684;23.350;2023-08-06T01:10:51;94166.41;;;21.94;100.00
14067;BME280;7108;42.684;23.350;2023-08-06T01:15:59;94166.09;;;21.92;100.00
14067;BME280;7108;42.684;23.350;2023-08-06T01:18:26;94169.75;;;21.89;100.00
14067;BME280;7108;42.684;23.350;2023-08-06T01:20:51;94154.78;;;21.81;100.00
14067;BME280;7108;42.684;23.350;2023-08-06T01:23:18;94170.34;;;21.93;100.00
14067;BME280;7108;42.684;23.350;2023-08-06T01:25:49;94156.50;;;21.96;100.00
14067;BME280;7108;42.684;23.350;2023-08-06T01:30:59;94160.59;;;21.92;100.00
14067;BME280;7108;42.684;23.350;2023-08-06T01:33:28;94156.50;;;21.96;100.00
14067;BME280;7108;42.684;23.350;2023-08-06T01:35:56;94144.31;;;21.97;100.00
14067;BME280;7108;42.684;23.350;2023-08-06T01:38:23;94157.25;;;21.97;100.00
14067;BME280;7108;42.684;23.350;2023-08-06T01:40:50;94129.66;;;21.82;100.00
14067;BME280;7108;42.684;23.350;2023-08-06T01:43:15;94130.56;;;21.88;100.00
14067;BME280;7108;42.684;23.350;2023-08-06T01:45:40;94137.44;;;21.84;100.00
14067;BME280;7108;42.684;23.350;2023-08-06T01:48:06;94144.44;;;21.85;100.00
14067;BME280;7108;42.684;23.350;2023-08-06T01:50:31;94132.34;;;21.56;100.00
14067;BME280;7108;42.684;23.350;2023-08-06T01:52:57;94148.22;;;21.70;100.00
14067;BME280;7108;42.684;23.350;2023-08-06T01:55:22;94130.53;;;21.62;100.00
14067;BME280;7108;42.684;23.350;2023-08-06T01:57:47;94154.63;;;21.76;100.00
14067;BME280;7108;42.684;23.350;2023-08-06T02:00:13;94149.47;;;21.77;100.00
14067;BME280;7108;42.684;23.350;2023-08-06T02:02:38;94142.13;;;21.75;100.00
14067;BME280;7108;42.684;23.350;2023-08-06T02:05:06;94127.97;;;21.76;100.00
14067;BME280;7108;42.684;23.350;2023-08-06T02:07:31;94137.56;;;21.80;100.00
14067;BME280;7108;42.684;23.350;2023-08-06T02:09:56;94142.31;;;21.80;100.00
14067;BME280;7108;42.684;23.350;2023-08-06T02:12:22;94128.75;;;21.85;100.00
14067;BME280;7108;42.684;23.350;2023-08-06T02:14:47;94124.00;;;21.77;100.00
14067;BME280;7108;42.684;23.350;2023-08-06T02:17:13;94108.28;;;21.60;100.00
14067;BME280;7108;42.684;23.350;2023-08-06T02:19:38;94123.84;;;21.72;100.00
14067;BME280;7108;42.684;23.350;2023-08-06T02:22:04;94144.28;;;21.79;100.00
14067;BME280;7108;42.684;23.350;2023-08-06T02:24:29;94142.28;;;21.71;100.00
14067;BME280;7108;42.684;23.350;2023-08-06T02:26:55;94158.44;;;21.78;100.00
14067;BME280;7108;42.684;23.350;2023-08-06T02:29:21;94167.13;;;21.77;100.00
14067;BME280;7108;42.684;23.350;2023-08-06T02:31:46;94167.78;;;21.50;100.00
14067;BME280;7108;42.684;23.350;2023-08-06T02:34:12;94140.72;;;21.52;100.00
14067;BME280;7108;42.684;23.350;2023-08-06T02:36:37;94134.25;;;21.46;100.00
14067;BME280;7108;42.684;23.350;2023-08-06T02:39:03;94147.00;;;21.31;100.00
14067;BME280;7108;42.684;23.350;2023-08-06T02:41:28;94168.34;;;21.36;100.00
14067;BME280;7108;42.684;23.350;2023-08-06T02:43:53;94190.25;;;21.36;100.00
14067;BME280;7108;42.684;23.350;2023-08-06T02:46:19;94172.75;;;21.04;100.00
14067;BME280;7108;42.684;23.350;2023-08-06T02:48:44;94199.25;;;21.07;100.00
14067;BME280;7108;42.684;23.350;2023-08-06T02:51:10;94179.47;;;21.03;100.00
14067;BME280;7108;42.684;23.350;2023-08-06T02:53:35;94154.28;;;20.95;100.00
14067;BME280;7108;42.684;23.350;2023-08-06T02:56:01;94142.59;;;21.04;100.00
14067;BME280;7108;42.684;23.350;2023-08-06T02:58:26;94153.03;;;21.17;100.00
14067;BME280;7108;42.684;23.350;2023-08-06T03:01:05;94155.81;;;21.26;100.00
14067;BME280;7108;42.684;23.350;2023-08-06T03:03:32;94134.03;;;21.23;100.00
14067;BME280;7108;42.684;23.350;2023-08-06T03:05:58;94139.72;;;21.37;100.00
14067;BME280;7108;42.684;23.350;2023-08-06T03:08:23;94137.38;;;21.27;100.00
14067;BME280;7108;42.684;23.350;2023-08-06T03:10:49;94133.47;;;21.37;100.00
14067;BME280;7108;42.684;23.350;2023-08-06T03:13:18;94102.69;;;21.24;100.00
14067;BME280;7108;42.684;23.350;2023-08-06T03:15:57;94102.22;;;21.25;100.00
14067;BME280;7108;42.684;23.350;2023-08-06T03:18:24;94134.38;;;21.34;100.00
14067;BME280;7108;42.684;23.350;2023-08-06T03:20:51;94129.34;;;21.32;100.00
14067;BME280;7108;42.684;23.350;2023-08-06T03:23:17;94116.59;;;21.38;100.00
14067;BME280;7108;42.684;23.350;2023-08-06T03:25:43;94103.03;;;21.44;100.00
14067;BME280;7108;42.684;23.350;2023-08-06T03:28:08;94116.13;;;21.40;100.00
14067;BME280;7108;42.684;23.350;2023-08-06T03:30:34;94162.59;;;21.43;100.00
14067;BME280;7108;42.684;23.350;2023-08-06T03:32:59;94148.63;;;21.20;100.00
14067;BME280;7108;42.684;23.350;2023-08-06T03:35:24;94185.13;;;21.47;100.00
14067;BME280;7108;42.684;23.350;2023-08-06T03:37:50;94193.22;;;21.51;100.00
14067;BME280;7108;42.684;23.350;2023-08-06T03:40:15;94192.53;;;21.59;100.00
14067;BME280;7108;42.684;23.350;2023-08-06T03:42:41;94182.91;;;21.55;100.00
14067;BME280;7108;42.684;23.350;2023-08-06T03:45:07;94155.38;;;21.37;100.00
14067;BME280;7108;42.684;23.350;2023-08-06T03:47:32;94169.16;;;21.46;100.00
14067;BME280;7108;42.684;23.350;2023-08-06T03:49:58;94168.81;;;21.44;100.00
14067;BME280;7108;42.684;23.350;2023-08-06T03:52:23;94173.00;;;21.27;100.00
14067;BME280;7108;42.684;23.350;2023-08-06T03:54:49;94152.31;;;20.96;100.00
14067;BME280;7108;42.684;23.350;2023-08-06T03:57:14;94187.66;;;21.03;100.00
14067;BME280;7108;42.684;23.350;2023-08-06T03:59:40;94198.03;;;21.08;100.00
14067;BME280;7108;42.684;23.350;2023-08-06T04:02:05;94190.50;;;21.20;100.00
14067;BME280;7108;42.684;23.350;2023-08-06T04:04:30;94196.47;;;21.28;100.00
14067;BME280;7108;42.684;23.350;2023-08-06T04:06:56;94195.50;;;21.22;100.00
14067;BME280;7108;42.684;23.350;2023-08-06T04:09:21;94205.75;;;21.30;100.00
14067;BME280;7108;42.684;23.350;2023-08-06T04:11:47;94205.50;;;21.37;100.00
14067;BME280;7108;42.684;23.350;2023-08-06T04:14:12;94197.91;;;21.41;100.00
14067;BME280;7108;42.684;23.350;2023-08-06T04:16:38;94219.03;;;21.62;100.00
14067;BME280;7108;42.684;23.350;2023-08-06T04:19:03;94205.31;;;21.62;100.00
14067;BME280;7108;42.684;23.350;2023-08-06T04:21:28;94183.97;;;21.57;100.00
14067;BME280;7108;42.684;23.350;2023-08-06T04:23:54;94176.97;;;21.65;100.00
14067;BME280;7108;42.684;23.350;2023-08-06T04:26:19;94173.94;;;21.63;100.00
14067;BME280;7108;42.684;23.350;2023-08-06T04:28:45;94167.41;;;21.70;100.00
14067;BME280;7108;42.684;23.350;2023-08-06T04:31:10;94150.03;;;21.64;100.00
14067;BME280;7108;42.684;23.350;2023-08-06T04:33:36;94171.06;;;21.67;100.00
14067;BME280;7108;42.684;23.350;2023-08-06T04:36:01;94176.88;;;21.77;100.00
14067;BME280;7108;42.684;23.350;2023-08-06T04:38:27;94164.09;;;21.83;100.00
14067;BME280;7108;42.684;23.350;2023-08-06T04:40:53;94158.16;;;21.85;100.00
14067;BME280;7108;42.684;23.350;2023-08-06T04:43:18;94148.88;;;21.82;100.00
14067;BME280;7108;42.684;23.350;2023-08-06T04:45:48;94151.31;;;21.89;100.00
14067;BME280;7108;42.684;23.350;2023-08-06T04:48:13;94147.94;;;21.85;100.00
14067;BME280;7108;42.684;23.350;2023-08-06T04:50:43;94125.69;;;21.83;100.00
14067;BME280;7108;42.684;23.350;2023-08-06T04:53:09;94120.53;;;21.94;100.00
14067;BME280;7108;42.684;23.350;2023-08-06T04:55:34;94106.34;;;21.78;100.00
14067;BME280;7108;42.684;23.350;2023-08-06T04:58:00;94111.53;;;21.85;100.00
14067;BME280;7108;42.684;23.350;2023-08-06T05:00:25;94094.84;;;21.53;100.00
14067;BME280;7108;42.684;23.350;2023-08-06T05:02:50;94111.78;;;21.60;100.00
14067;BME280;7108;42.684;23.350;2023-08-06T05:05:16;94095.66;;;21.23;100.00
14067;BME280;7108;42.684;23.350;2023-08-06T05:07:41;94117.97;;;21.04;100.00
14067;BME280;7108;42.684;23.350;2023-08-06T05:10:07;94115.44;;;21.18;100.00
14067;BME280;7108;42.684;23.350;2023-08-06T05:12:32;94110.63;;;21.31;100.00
14067;BME280;7108;42.684;23.350;2023-08-06T05:14:58;94115.34;;;21.39;100.00
14067;BME280;7108;42.684;23.350;2023-08-06T05:17:23;94123.56;;;21.39;100.00
14067;BME280;7108;42.684;23.350;2023-08-06T05:19:49;94134.34;;;21.64;100.00
14067;BME280;7108;42.684;23.350;2023-08-06T05:22:14;94113.53;;;21.45;100.00
14067;BME280;7108;42.684;23.350;2023-08-06T05:24:40;94129.28;;;21.54;100.00
14067;BME280;7108;42.684;23.350;2023-08-06T05:27:05;94141.03;;;21.63;100.00
14067;BME280;7108;42.684;23.350;2023-08-06T05:29:31;94130.22;;;21.60;100.00
14067;BME280;7108;42.684;23.350;2023-08-06T05:31:56;94126.63;;;21.41;100.00
14067;BME280;7108;42.684;23.350;2023-08-06T05:34:22;94138.66;;;21.44;100.00
14067;BME280;7108;42.684;23.350;2023-08-06T05:36:47;94127.09;;;21.40;100.00
14067;BME280;7108;42.684;23.350;2023-08-06T05:39:12;94113.53;;;21.45;100.00
14067;BME280;7108;42.684;23.350;2023-08-06T05:41:38;94113.63;;;21.24;100.00
14067;BME280;7108;42.684;23.350;2023-08-06T05:44:03;94111.16;;;21.17;100.00
14067;BME280;7108;42.684;23.350;2023-08-06T05:46:29;94094.13;;;21.22;100.00
14067;BME280;7108;42.684;23.350;2023-08-06T05:48:54;94097.53;;;21.26;100.00
14067;BME280;7108;42.684;23.350;2023-08-06T05:51:20;94089.09;;;21.11;100.00
14067;BME280;7108;42.684;23.350;2023-08-06T05:53:45;94108.38;;;21.38;100.00
14067;BME280;7108;42.684;23.350;2023-08-06T05:56:12;94090.50;;;21.25;100.00
14067;BME280;7108;42.684;23.350;2023-08-06T05:58:37;94133.56;;;21.55;100.00
14067;BME280;7108;42.684;23.350;2023-08-06T06:01:03;94118.09;;;21.39;100.00
14067;BME280;7108;42.684;23.350;2023-08-06T06:03:28;94121.00;;;21.36;100.00
14067;BME280;7108;42.684;23.350;2023-08-06T06:05:54;94113.03;;;21.20;100.00
14067;BME280;7108;42.684;23.350;2023-08-06T06:08:19;94117.19;;;20.94;100.00
14067;BME280;7108;42.684;23.350;2023-08-06T06:10:45;94126.13;;;20.95;100.00
14067;BME280;7108;42.684;23.350;2023-08-06T06:13:10;94134.63;;;20.88;100.00
14067;BME280;7108;42.684;23.350;2023-08-06T06:15:35;94128.66;;;20.80;100.00
14067;BME280;7108;42.684;23.350;2023-08-06T06:18:01;94140.19;;;20.75;100.00
14067;BME280;7108;42.684;23.350;2023-08-06T06:20:26;94146.47;;;20.85;100.00
14067;BME280;7108;42.684;23.350;2023-08-06T06:22:52;94158.38;;;20.91;100.00
14067;BME280;7108;42.684;23.350;2023-08-06T06:25:17;94151.97;;;20.85;100.00
14067;BME280;7108;42.684;23.350;2023-08-06T06:27:43;94152.56;;;20.89;100.00
14067;BME280;7108;42.684;23.350;2023-08-06T06:30:09;94180.16;;;20.94;100.00
14067;BME280;7108;42.684;23.350;2023-08-06T06:32:34;94117.16;;;20.73;100.00
14067;BME280;7108;42.684;23.350;2023-08-06T06:35:00;94155.94;;;20.93;100.00
14067;BME280;7108;42.684;23.350;2023-08-06T06:37:25;94160.91;;;21.07;100.00
14067;BME280;7108;42.684;23.350;2023-08-06T06:39:51;94166.97;;;21.02;100.00
14067;BME280;7108;42.684;23.350;2023-08-06T06:42:16;94153.69;;;21.00;100.00
14067;BME280;7108;42.684;23.350;2023-08-06T06:44:42;94169.13;;;21.07;100.00
14067;BME280;7108;42.684;23.350;2023-08-06T06:47:07;94188.97;;;21.19;100.00
14067;BME280;7108;42.684;23.350;2023-08-06T06:49:32;94178.94;;;21.25;100.00
14067;BME280;7108;42.684;23.350;2023-08-06T06:51:58;94167.72;;;21.02;100.00
14067;BME280;7108;42.684;23.350;2023-08-06T06:54:23;94180.06;;;21.07;100.00
14067;BME280;7108;42.684;23.350;2023-08-06T06:56:49;94172.38;;;20.93;100.00
14067;BME280;7108;42.684;23.350;2023-08-06T06:59:14;94188.69;;;20.96;100.00
14067;BME280;7108;42.684;23.350;2023-08-06T07:01:39;94191.50;;;21.05;100.00
14067;BME280;7108;42.684;23.350;2023-08-06T07:04:05;94195.88;;;21.03;100.00
14067;BME280;7108;42.684;23.350;2023-08-06T07:06:31;94187.72;;;20.90;100.00
14067;BME280;7108;42.684;23.350;2023-08-06T07:08:56;94204.59;;;21.10;100.00
14067;BME280;7108;42.684;23.350;2023-08-06T07:11:22;94189.19;;;21.04;100.00
14067;BME280;7108;42.684;23.350;2023-08-06T07:13:49;94187.44;;;21.18;100.00
14067;BME280;7108;42.684;23.350;2023-08-06T07:16:20;94197.53;;;21.30;100.00
14067;BME280;7108;42.684;23.350;2023-08-06T07:18:46;94191.56;;;21.23;100.00
14067;BME280;7108;42.684;23.350;2023-08-06T07:21:11;94185.97;;;21.26;100.00
14067;BME280;7108;42.684;23.350;2023-08-06T07:23:37;94193.44;;;21.26;100.00
14067;BME280;7108;42.684;23.350;2023-08-06T07:26:02;94168.66;;;21.08;100.00
14067;BME280;7108;42.684;23.350;2023-08-06T07:28:27;94193.09;;;21.24;100.00
14067;BME280;7108;42.684;23.350;2023-08-06T07:30:53;94202.56;;;21.32;100.00
14067;BME280;7108;42.684;23.350;2023-08-06T07:33:18;94198.47;;;21.36;100.00
14067;BME280;7108;42.684;23.350;2023-08-06T07:35:44;94215.97;;;21.60;100.00
14067;BME280;7108;42.684;23.350;2023-08-06T07:38:09;94180.09;;;21.46;100.00
14067;BME280;7108;42.684;23.350;2023-08-06T07:40:36;94195.88;;;21.63;100.00
14067;BME280;7108;42.684;23.350;2023-08-06T07:43:02;94202.00;;;21.76;100.00
14067;BME280;7108;42.684;23.350;2023-08-06T07:45:28;94189.69;;;21.80;100.00
14067;BME280;7108;42.684;23.350;2023-08-06T07:47:53;94195.66;;;21.97;100.00
14067;BME280;7108;42.684;23.350;2023-08-06T07:50:19;94190.97;;;22.06;100.00
14067;BME280;7108;42.684;23.350;2023-08-06T07:52:44;94163.34;;;21.92;100.00
14067;BME280;7108;42.684;23.350;2023-08-06T07:55:09;94184.56;;;22.09;100.00
14067;BME280;7108;42.684;23.350;2023-08-06T07:57:35;94175.91;;;22.29;100.00
14067;BME280;7108;42.684;23.350;2023-08-06T08:00:01;94180.66;;;22.46;100.00
14067;BME280;7108;42.684;23.350;2023-08-06T08:02:27;94177.91;;;22.55;100.00
14067;BME280;7108;42.684;23.350;2023-08-06T08:04:52;94192.09;;;22.62;100.00
14067;BME280;7108;42.684;23.350;2023-08-06T08:07:18;94165.69;;;22.47;100.00
14067;BME280;7108;42.684;23.350;2023-08-06T08:09:43;94157.47;;;22.65;100.00
14067;BME280;7108;42.684;23.350;2023-08-06T08:12:09;94178.94;;;22.84;100.00
14067;BME280;7108;42.684;23.350;2023-08-06T08:14:34;94148.00;;;22.48;100.00
14067;BME280;7108;42.684;23.350;2023-08-06T08:17:05;94186.00;;;22.67;100.00
14067;BME280;7108;42.684;23.350;2023-08-06T08:19:33;94180.63;;;22.82;100.00
14067;BME280;7108;42.684;23.350;2023-08-06T08:21:58;94188.88;;;22.91;100.00
14067;BME280;7108;42.684;23.350;2023-08-06T08:24:24;94163.06;;;22.79;100.00
14067;BME280;7108;42.684;23.350;2023-08-06T08:26:50;94165.84;;;22.70;100.00
14067;BME280;7108;42.684;23.350;2023-08-06T08:29:16;94176.84;;;22.61;100.00
14067;BME280;7108;42.684;23.350;2023-08-06T08:31:41;94187.06;;;22.70;100.00
14067;BME280;7108;42.684;23.350;2023-08-06T08:34:07;94162.19;;;22.73;100.00
14067;BME280;7108;42.684;23.350;2023-08-06T08:36:32;94159.53;;;22.88;100.00
14067;BME280;7108;42.684;23.350;2023-08-06T08:38:57;94159.41;;;23.00;100.00
14067;BME280;7108;42.684;23.350;2023-08-06T08:41:23;94124.00;;;22.84;100.00
14067;BME280;7108;42.684;23.350;2023-08-06T08:43:50;94173.22;;;23.23;100.00
14067;BME280;7108;42.684;23.350;2023-08-06T08:46:19;94171.06;;;23.36;100.00
14067;BME280;7108;42.684;23.350;2023-08-06T08:48:45;94160.50;;;23.44;100.00
14067;BME280;7108;42.684;23.350;2023-08-06T08:51:12;94172.06;;;23.48;100.00
14067;BME280;7108;42.684;23.350;2023-08-06T08:53:38;94158.00;;;23.55;100.00
14067;BME280;7108;42.684;23.350;2023-08-06T08:56:05;94142.28;;;23.46;100.00
14067;BME280;7108;42.684;23.350;2023-08-06T08:58:31;94131.84;;;23.27;100.00
14067;BME280;7108;42.684;23.350;2023-08-06T09:00:57;94153.19;;;23.32;100.00
14067;BME280;7108;42.684;23.350;2023-08-06T09:03:23;94142.63;;;23.39;100.00
14067;BME280;7108;42.684;23.350;2023-08-06T09:05:52;94142.84;;;23.59;100.00
14067;BME280;7108;42.684;23.350;2023-08-06T09:08:23;94134.38;;;23.39;100.00
14067;BME280;7108;42.684;23.350;2023-08-06T09:10:50;94134.53;;;23.45;100.00
14067;BME280;7108;42.684;23.350;2023-08-06T09:13:18;94130.81;;;23.48;100.00
14067;BME280;7108;42.684;23.350;2023-08-06T09:15:45;94128.25;;;23.44;100.00
14067;BME280;7108;42.684;23.350;2023-08-06T09:18:11;94140.56;;;23.58;100.00
14067;BME280;7108;42.684;23.350;2023-08-06T09:20:38;94102.56;;;23.47;100.00
14067;BME280;7108;42.684;23.350;2023-08-06T09:23:10;94119.88;;;23.71;100.00
14067;BME280;7108;42.684;23.350;2023-08-06T09:25:39;94112.03;;;23.78;100.00
14067;BME280;7108;42.684;23.350;2023-08-06T09:28:07;94116.78;;;24.01;100.00
14067;BME280;7108;42.684;23.350;2023-08-06T09:30:35;94116.63;;;24.05;100.00
14067;BME280;7108;42.684;23.350;2023-08-06T09:33:01;94129.34;;;24.17;100.00
14067;BME280;7108;42.684;23.350;2023-08-06T09:35:31;94127.88;;;24.30;100.00
14067;BME280;7108;42.684;23.350;2023-08-06T09:38:06;94106.81;;;24.27;100.00
14067;BME280;7108;42.684;23.350;2023-08-06T09:40:32;94105.34;;;24.41;100.00
14067;BME280;7108;42.684;23.350;2023-08-06T09:42:59;94099.56;;;24.15;100.00
14067;BME280;7108;42.684;23.350;2023-08-06T09:45:35;94110.75;;;24.12;100.00
14067;BME280;7108;42.684;23.350;2023-08-06T09:48:08;94111.00;;;23.99;100.00
14067;BME280;7108;42.684;23.350;2023-08-06T09:50:36;94103.91;;;24.07;100.00
14067;BME280;7108;42.684;23.350;2023-08-06T09:53:06;94097.69;;;24.21;100.00
14067;BME280;7108;42.684;23.350;2023-08-06T09:55:33;94118.22;;;24.35;100.00
14067;BME280;7108;42.684;23.350;2023-08-06T09:57:59;94114.13;;;24.30;100.00
14067;BME280;7108;42.684;23.350;2023-08-06T10:00:25;94077.91;;;24.08;100.00
14067;BME280;7108;42.684;23.350;2023-08-06T10:02:53;94119.25;;;24.37;100.00
14067;BME280;7108;42.684;23.350;2023-08-06T10:05:22;94107.38;;;24.31;100.00
14067;BME280;7108;42.684;23.350;2023-08-06T10:07:48;94110.75;;;24.12;100.00
14067;BME280;7108;42.684;23.350;2023-08-06T10:10:14;94078.22;;;23.87;100.00
14067;BME280;7108;42.684;23.350;2023-08-06T10:12:44;94121.47;;;24.10;100.00
14067;BME280;7108;42.684;23.350;2023-08-06T10:15:14;94127.72;;;24.10;100.00
14067;BME280;7108;42.684;23.350;2023-08-06T10:17:42;94114.03;;;24.01;100.00
14067;BME280;7108;42.684;23.350;2023-08-06T10:20:09;94111.59;;;24.03;100.00
14067;BME280;7108;42.684;23.350;2023-08-06T10:22:35;94108.25;;;23.99;100.00
14067;BME280;7108;42.684;23.350;2023-08-06T10:25:02;94106.94;;;24.09;100.00
14067;BME280;7108;42.684;23.350;2023-08-06T10:27:41;94119.25;;;24.37;100.00
14067;BME280;7108;42.684;23.350;2023-08-06T10:30:22;94112.72;;;24.35;100.00
14067;BME280;7108;42.684;23.350;2023-08-06T10:32:55;94104.34;;;24.29;100.00
14067;BME280;7108;42.684;23.350;2023-08-06T10:40:36;94131.88;;;24.29;100.00
14067;BME280;7108;42.684;23.350;2023-08-06T10:43:03;94133.03;;;24.37;100.00
14067;BME280;7108;42.684;23.350;2023-08-06T10:45:30;94111.78;;;24.14;100.00
14067;BME280;7108;42.684;23.350;2023-08-06T10:47:59;94137.66;;;24.31;100.00
14067;BME280;7108;42.684;23.350;2023-08-06T10:50:24;94105.38;;;23.94;100.00
14067;BME280;7108;42.684;23.350;2023-08-06T10:52:50;94124.28;;;24.01;100.00
14067;BME280;7108;42.684;23.350;2023-08-06T10:57:49;94160.13;;;24.15;100.00
14067;BME280;7108;42.684;23.350;2023-08-06T11:00:15;94156.13;;;24.16;100.00
14067;BME280;7108;42.684;23.350;2023-08-06T11:02:41;94165.34;;;24.13;100.00
14067;BME280;7108;42.684;23.350;2023-08-06T11:05:07;94170.06;;;24.13;100.00
14067;BME280;7108;42.684;23.350;2023-08-06T11:07:34;94159.31;;;24.00;100.00
14067;BME280;7108;42.684;23.350;2023-08-06T11:10:07;94152.00;;;23.97;100.00
14067;BME280;7108;42.684;23.350;2023-08-06T11:12:33;94147.19;;;24.07;100.00
14067;BME280;7108;42.684;23.350;2023-08-06T11:14:59;94165.94;;;24.17;100.00
14067;BME280;7108;42.684;23.350;2023-08-06T11:17:27;94150.56;;;24.02;100.00
14067;BME280;7108;42.684;23.350;2023-08-06T11:19:53;94163.91;;;24.18;100.00
14067;BME280;7108;42.684;23.350;2023-08-06T11:22:20;94174.53;;;24.10;100.00
14067;BME280;7108;42.684;23.350;2023-08-06T11:24:46;94165.56;;;24.01;100.00
14067;BME280;7108;42.684;23.350;2023-08-06T11:27:15;94192.31;;;24.00;100.00
14067;BME280;7108;42.684;23.350;2023-08-06T11:29:41;94201.63;;;23.79;100.00
14067;BME280;7108;42.684;23.350;2023-08-06T11:32:11;94211.56;;;23.77;100.00
14067;BME280;7108;42.684;23.350;2023-08-06T11:34:37;94193.28;;;23.56;100.00
14067;BME280;7108;42.684;23.350;2023-08-06T11:37:03;94200.63;;;23.59;100.00
14067;BME280;7108;42.684;23.350;2023-08-06T11:39:34;94177.09;;;23.49;100.00
14067;BME280;7108;42.684;23.350;2023-08-06T11:42:00;94150.19;;;23.21;100.00
14067;BME280;7108;42.684;23.350;2023-08-06T11:44:30;94193.75;;;23.55;100.00
14067;BME280;7108;42.684;23.350;2023-08-06T11:46:56;94190.94;;;23.73;100.00
14067;BME280;7108;42.684;23.350;2023-08-06T11:49:41;94180.78;;;23.87;100.00
14067;BME280;7108;42.684;23.350;2023-08-06T11:52:20;94184.63;;;24.13;100.00
14067;BME280;7108;42.684;23.350;2023-08-06T11:55:18;94190.53;;;24.21;100.00
14067;BME280;7108;42.684;23.350;2023-08-06T11:57:48;94196.47;;;24.51;100.00
14067;BME280;7108;42.684;23.350;2023-08-06T12:00:14;94153.72;;;24.56;100.00
14067;BME280;7108;42.684;23.350;2023-08-06T12:02:40;94152.06;;;24.87;100.00
14067;BME280;7108;42.684;23.350;2023-08-06T12:05:11;94160.34;;;25.02;100.00
14067;BME280;7108;42.684;23.350;2023-08-06T12:07:41;94158.66;;;25.18;100.00
14067;BME280;7108;42.684;23.350;2023-08-06T12:10:08;94155.50;;;25.25;100.00
14067;BME280;7108;42.684;23.350;2023-08-06T12:12:35;94156.84;;;25.30;100.00
14067;BME280;7108;42.684;23.350;2023-08-06T12:15:01;94155.59;;;25.31;100.00
14067;BME280;7108;42.684;23.350;2023-08-06T12:17:27;94138.84;;;25.49;100.00
14067;BME280;7108;42.684;23.350;2023-08-06T12:19:52;94150.31;;;25.76;100.00
14067;BME280;7108;42.684;23.350;2023-08-06T12:22:18;94145.09;;;25.78;100.00
14067;BME280;7108;42.684;23.350;2023-08-06T12:24:45;94144.53;;;25.60;97.42
14067;BME280;7108;42.684;23.350;2023-08-06T12:27:11;94142.81;;;25.62;99.38
14067;BME280;7108;42.684;23.350;2023-08-06T12:29:47;94138.72;;;25.72;100.00
14067;BME280;7108;42.684;23.350;2023-08-06T12:32:13;94147.09;;;25.63;99.71
14067;BME280;7108;42.684;23.350;2023-08-06T12:34:42;94151.41;;;25.50;99.80
14067;BME280;7108;42.684;23.350;2023-08-06T12:37:08;94153.78;;;25.42;100.00
14067;BME280;7108;42.684;23.350;2023-08-06T12:39:35;94130.50;;;25.14;100.00
14067;BME280;7108;42.684;23.350;2023-08-06T12:42:01;94147.06;;;25.14;100.00
14067;BME280;7108;42.684;23.350;2023-08-06T12:44:27;94150.28;;;25.13;100.00
14067;BME280;7108;42.684;23.350;2023-08-06T12:46:53;94144.28;;;25.14;100.00
14067;BME280;7108;42.684;23.350;2023-08-06T12:49:19;94144.47;;;24.97;99.37
14067;BME280;7108;42.684;23.350;2023-08-06T12:51:50;94139.59;;;24.92;100.00
14067;BME280;7108;42.684;23.350;2023-08-06T12:54:20;94137.16;;;25.08;100.00
14067;BME280;7108;42.684;23.350;2023-08-06T12:56:46;94124.41;;;24.96;100.00
14067;BME280;7108;42.684;23.350;2023-08-06T12:59:14;94139.41;;;24.95;100.00
14067;BME280;7108;42.684;23.350;2023-08-06T13:01:41;94138.84;;;25.06;100.00
14067;BME280;7108;42.684;23.350;2023-08-06T13:04:06;94139.75;;;25.12;100.00